Jeffris, Wisconsin
Current Conditions -  °F | °C
As of 6:55 PM on Wednesday 17 Dec 2014 (Local Time) from KRRL Reporting Station
Overcast Overcast  
Wind Chill: 12°   Ceiling: 1500
Heat Index: 22°   Visibility: 10mi
Dew Point: 17°   Wind: 8mph
Humidity: 83%   Direction: 350°N
Pressure: 30.21"   Gusts: NA
Location:  45.3595°N, 89.45°W
Report Text: KRRL 180055Z AUTO 35007KT 10SM OVC015 M06/M08 A3021 RMK AO2 T10581083
Loading
Personal Weather Stations






























Interactive Weather Map New forecast layout! Learn more

10-Day Weather Forecast

Advertisements
Track Severe Weather on mobile